sensor_id;sensor_type;location;lat;lon;timestamp;P1;durP1;ratioP1;P2;durP2;ratioP2
67352;SDS011;54238;52.278;21.056;2023-06-24T00:00:40;7.80;;;4.30;;
67352;SDS011;54238;52.278;21.056;2023-06-24T00:03:28;8.20;;;4.50;;
67352;SDS011;54238;52.278;21.056;2023-06-24T00:05:55;5.90;;;4.50;;
67352;SDS011;54238;52.278;21.056;2023-06-24T00:08:34;7.90;;;4.80;;
67352;SDS011;54238;52.278;21.056;2023-06-24T00:11:06;6.20;;;4.90;;
67352;SDS011;54238;52.278;21.056;2023-06-24T00:13:38;6.00;;;5.00;;
67352;SDS011;54238;52.278;21.056;2023-06-24T00:16:13;6.10;;;4.80;;
67352;SDS011;54238;52.278;21.056;2023-06-24T00:18:43;6.30;;;4.40;;
67352;SDS011;54238;52.278;21.056;2023-06-24T00:21:14;4.90;;;4.00;;
67352;SDS011;54238;52.278;21.056;2023-06-24T00:23:44;6.80;;;4.80;;
67352;SDS011;54238;52.278;21.056;2023-06-24T00:26:18;6.00;;;4.60;;
67352;SDS011;54238;52.278;21.056;2023-06-24T00:28:45;6.40;;;4.50;;
67352;SDS011;54238;52.278;21.056;2023-06-24T00:31:15;7.00;;;4.60;;
67352;SDS011;54238;52.278;21.056;2023-06-24T00:33:48;5.70;;;4.20;;
67352;SDS011;54238;52.278;21.056;2023-06-24T00:36:19;8.90;;;4.20;;
67352;SDS011;54238;52.278;21.056;2023-06-24T00:38:53;6.60;;;4.40;;
67352;SDS011;54238;52.278;21.056;2023-06-24T00:41:23;7.20;;;4.50;;
67352;SDS011;54238;52.278;21.056;2023-06-24T00:43:56;5.80;;;4.10;;
67352;SDS011;54238;52.278;21.056;2023-06-24T00:46:25;7.40;;;4.90;;
67352;SDS011;54238;52.278;21.056;2023-06-24T00:48:56;8.00;;;4.50;;
67352;SDS011;54238;52.278;21.056;2023-06-24T00:54:01;7.50;;;4.90;;
67352;SDS011;54238;52.278;21.056;2023-06-24T00:56:35;6.20;;;4.40;;
67352;SDS011;54238;52.278;21.056;2023-06-24T00:59:08;6.40;;;4.70;;
67352;SDS011;54238;52.278;21.056;2023-06-24T01:01:39;5.70;;;4.00;;
67352;SDS011;54238;52.278;21.056;2023-06-24T01:04:09;4.60;;;3.90;;
67352;SDS011;54238;52.278;21.056;2023-06-24T01:06:37;10.20;;;4.40;;
67352;SDS011;54238;52.278;21.056;2023-06-24T01:09:15;7.70;;;4.70;;
67352;SDS011;54238;52.278;21.056;2023-06-24T01:11:45;8.30;;;4.30;;
67352;SDS011;54238;52.278;21.056;2023-06-24T01:14:12;6.30;;;3.80;;
67352;SDS011;54238;52.278;21.056;2023-06-24T01:39:40;8.00;;;4.40;;
67352;SDS011;54238;52.278;21.056;2023-06-24T01:42:16;6.20;;;4.50;;
67352;SDS011;54238;52.278;21.056;2023-06-24T01:44:51;5.70;;;4.70;;
67352;SDS011;54238;52.278;21.056;2023-06-24T01:49:56;7.80;;;5.00;;
67352;SDS011;54238;52.278;21.056;2023-06-24T01:52:30;6.40;;;4.60;;
67352;SDS011;54238;52.278;21.056;2023-06-24T01:55:02;5.50;;;4.70;;
67352;SDS011;54238;52.278;21.056;2023-06-24T01:57:39;7.00;;;4.70;;
67352;SDS011;54238;52.278;21.056;2023-06-24T02:00:09;11.40;;;5.60;;
67352;SDS011;54238;52.278;21.056;2023-06-24T02:02:40;7.80;;;5.10;;
67352;SDS011;54238;52.278;21.056;2023-06-24T02:05:09;8.30;;;5.10;;
67352;SDS011;54238;52.278;21.056;2023-06-24T02:07:41;6.90;;;4.80;;
67352;SDS011;54238;52.278;21.056;2023-06-24T02:10:13;11.10;;;5.20;;
67352;SDS011;54238;52.278;21.056;2023-06-24T02:12:44;6.50;;;5.20;;
67352;SDS011;54238;52.278;21.056;2023-06-24T02:15:21;9.70;;;4.70;;
67352;SDS011;54238;52.278;21.056;2023-06-24T02:17:54;10.20;;;5.30;;
67352;SDS011;54238;52.278;21.056;2023-06-24T02:20:26;9.40;;;5.60;;
67352;SDS011;54238;52.278;21.056;2023-06-24T02:22:58;7.30;;;5.30;;
67352;SDS011;54238;52.278;21.056;2023-06-24T02:25:31;8.10;;;5.90;;
67352;SDS011;54238;52.278;21.056;2023-06-24T02:27:58;8.90;;;5.20;;
67352;SDS011;54238;52.278;21.056;2023-06-24T02:30:31;7.80;;;5.60;;
67352;SDS011;54238;52.278;21.056;2023-06-24T02:33:01;9.20;;;5.40;;
67352;SDS011;54238;52.278;21.056;2023-06-24T02:35:29;6.90;;;5.30;;
67352;SDS011;54238;52.278;21.056;2023-06-24T02:38:02;8.40;;;5.40;;
67352;SDS011;54238;52.278;21.056;2023-06-24T02:40:31;7.80;;;6.00;;
67352;SDS011;54238;52.278;21.056;2023-06-24T02:43:01;8.50;;;6.10;;
67352;SDS011;54238;52.278;21.056;2023-06-24T02:45:29;9.40;;;5.50;;
67352;SDS011;54238;52.278;21.056;2023-06-24T02:48:01;9.70;;;6.30;;
67352;SDS011;54238;52.278;21.056;2023-06-24T02:50:30;10.00;;;5.90;;
67352;SDS011;54238;52.278;21.056;2023-06-24T02:53:01;7.70;;;5.90;;
67352;SDS011;54238;52.278;21.056;2023-06-24T02:55:32;10.60;;;6.30;;
67352;SDS011;54238;52.278;21.056;2023-06-24T02:58:04;7.30;;;5.70;;
67352;SDS011;54238;52.278;21.056;2023-06-24T03:00:37;9.90;;;5.80;;
67352;SDS011;54238;52.278;21.056;2023-06-24T03:03:06;9.70;;;6.10;;
67352;SDS011;54238;52.278;21.056;2023-06-24T03:05:35;8.30;;;5.70;;
67352;SDS011;54238;52.278;21.056;2023-06-24T03:08:05;7.10;;;5.50;;
67352;SDS011;54238;52.278;21.056;2023-06-24T03:10:36;10.30;;;5.70;;
67352;SDS011;54238;52.278;21.056;2023-06-24T03:13:04;9.60;;;6.10;;
67352;SDS011;54238;52.278;21.056;2023-06-24T03:15:34;8.10;;;6.40;;
67352;SDS011;54238;52.278;21.056;2023-06-24T03:18:03;9.90;;;6.10;;
67352;SDS011;54238;52.278;21.056;2023-06-24T03:20:33;8.20;;;6.20;;
67352;SDS011;54238;52.278;21.056;2023-06-24T03:23:06;11.70;;;6.40;;
67352;SDS011;54238;52.278;21.056;2023-06-24T03:25:34;8.50;;;5.60;;
67352;SDS011;54238;52.278;21.056;2023-06-24T03:28:08;8.00;;;6.00;;
67352;SDS011;54238;52.278;21.056;2023-06-24T03:30:38;8.10;;;6.00;;
67352;SDS011;54238;52.278;21.056;2023-06-24T03:33:10;9.80;;;6.40;;
67352;SDS011;54238;52.278;21.056;2023-06-24T03:35:43;11.50;;;5.90;;
67352;SDS011;54238;52.278;21.056;2023-06-24T03:38:11;10.80;;;5.40;;
67352;SDS011;54238;52.278;21.056;2023-06-24T03:40:38;8.60;;;6.50;;
67352;SDS011;54238;52.278;21.056;2023-06-24T03:43:09;9.90;;;6.50;;
67352;SDS011;54238;52.278;21.056;2023-06-24T03:45:42;13.30;;;6.10;;
67352;SDS011;54238;52.278;21.056;2023-06-24T03:48:10;14.30;;;6.50;;
67352;SDS011;54238;52.278;21.056;2023-06-24T03:50:39;12.60;;;6.20;;
67352;SDS011;54238;52.278;21.056;2023-06-24T03:53:08;9.90;;;6.40;;
67352;SDS011;54238;52.278;21.056;2023-06-24T03:55:39;11.50;;;6.60;;
67352;SDS011;54238;52.278;21.056;2023-06-24T03:58:06;8.70;;;6.50;;
67352;SDS011;54238;52.278;21.056;2023-06-24T04:00:35;10.10;;;5.90;;
67352;SDS011;54238;52.278;21.056;2023-06-24T04:03:07;9.00;;;6.10;;
67352;SDS011;54238;52.278;21.056;2023-06-24T04:05:37;7.80;;;6.50;;
67352;SDS011;54238;52.278;21.056;2023-06-24T04:08:07;7.10;;;5.60;;
67352;SDS011;54238;52.278;21.056;2023-06-24T04:10:36;10.30;;;6.60;;
67352;SDS011;54238;52.278;21.056;2023-06-24T04:15:41;10.80;;;6.30;;
67352;SDS011;54238;52.278;21.056;2023-06-24T04:18:11;10.30;;;6.10;;
67352;SDS011;54238;52.278;21.056;2023-06-24T04:20:41;9.80;;;5.60;;
67352;SDS011;54238;52.278;21.056;2023-06-24T04:23:08;10.60;;;5.90;;
67352;SDS011;54238;52.278;21.056;2023-06-24T04:25:37;9.30;;;6.60;;
67352;SDS011;54238;52.278;21.056;2023-06-24T04:28:06;9.00;;;6.10;;
67352;SDS011;54238;52.278;21.056;2023-06-24T04:30:36;10.10;;;5.60;;
67352;SDS011;54238;52.278;21.056;2023-06-24T04:33:08;10.70;;;6.40;;
67352;SDS011;54238;52.278;21.056;2023-06-24T04:35:37;8.60;;;5.70;;
67352;SDS011;54238;52.278;21.056;2023-06-24T04:38:05;9.20;;;6.40;;
67352;SDS011;54238;52.278;21.056;2023-06-24T04:40:37;10.60;;;6.90;;
67352;SDS011;54238;52.278;21.056;2023-06-24T04:43:08;9.10;;;6.60;;
67352;SDS011;54238;52.278;21.056;2023-06-24T04:45:40;8.20;;;6.10;;
67352;SDS011;54238;52.278;21.056;2023-06-24T04:48:10;9.70;;;6.10;;
67352;SDS011;54238;52.278;21.056;2023-06-24T04:50:37;11.10;;;6.40;;
67352;SDS011;54238;52.278;21.056;2023-06-24T04:53:05;10.50;;;6.30;;
67352;SDS011;54238;52.278;21.056;2023-06-24T04:55:34;7.80;;;5.50;;
67352;SDS011;54238;52.278;21.056;2023-06-24T04:58:04;9.30;;;6.40;;
67352;SDS011;54238;52.278;21.056;2023-06-24T05:00:33;7.70;;;5.20;;
67352;SDS011;54238;52.278;21.056;2023-06-24T05:03:02;7.80;;;6.10;;
67352;SDS011;54238;52.278;21.056;2023-06-24T05:05:32;7.50;;;5.30;;
67352;SDS011;54238;52.278;21.056;2023-06-24T05:08:00;8.40;;;6.20;;
67352;SDS011;54238;52.278;21.056;2023-06-24T05:10:30;7.40;;;5.80;;
67352;SDS011;54238;52.278;21.056;2023-06-24T05:12:59;7.20;;;5.60;;
67352;SDS011;54238;52.278;21.056;2023-06-24T05:15:27;8.60;;;5.60;;
67352;SDS011;54238;52.278;21.056;2023-06-24T05:17:56;7.20;;;5.70;;
67352;SDS011;54238;52.278;21.056;2023-06-24T05:20:26;9.10;;;5.80;;
67352;SDS011;54238;52.278;21.056;2023-06-24T05:22:56;9.70;;;5.40;;
67352;SDS011;54238;52.278;21.056;2023-06-24T05:25:23;7.70;;;6.30;;
67352;SDS011;54238;52.278;21.056;2023-06-24T05:27:50;10.20;;;6.00;;
67352;SDS011;54238;52.278;21.056;2023-06-24T05:30:20;6.70;;;5.20;;
67352;SDS011;54238;52.278;21.056;2023-06-24T05:32:47;9.10;;;6.50;;
67352;SDS011;54238;52.278;21.056;2023-06-24T05:35:19;10.20;;;6.70;;
67352;SDS011;54238;52.278;21.056;2023-06-24T05:37:47;7.90;;;6.00;;
67352;SDS011;54238;52.278;21.056;2023-06-24T05:40:19;10.10;;;5.60;;
67352;SDS011;54238;52.278;21.056;2023-06-24T05:42:48;7.30;;;5.00;;
67352;SDS011;54238;52.278;21.056;2023-06-24T05:45:18;6.50;;;5.30;;
67352;SDS011;54238;52.278;21.056;2023-06-24T05:47:54;7.50;;;5.90;;
67352;SDS011;54238;52.278;21.056;2023-06-24T05:50:23;9.70;;;6.30;;
67352;SDS011;54238;52.278;21.056;2023-06-24T05:52:52;7.20;;;5.70;;
67352;SDS011;54238;52.278;21.056;2023-06-24T05:55:22;8.50;;;5.50;;
67352;SDS011;54238;52.278;21.056;2023-06-24T05:57:54;6.90;;;5.40;;
67352;SDS011;54238;52.278;21.056;2023-06-24T06:00:21;8.00;;;5.70;;
67352;SDS011;54238;52.278;21.056;2023-06-24T06:02:52;8.10;;;5.30;;
67352;SDS011;54238;52.278;21.056;2023-06-24T06:05:22;8.00;;;5.10;;
67352;SDS011;54238;52.278;21.056;2023-06-24T06:07:49;7.00;;;5.10;;
67352;SDS011;54238;52.278;21.056;2023-06-24T06:10:22;8.60;;;5.60;;
67352;SDS011;54238;52.278;21.056;2023-06-24T06:12:49;6.20;;;5.10;;
67352;SDS011;54238;52.278;21.056;2023-06-24T06:15:16;9.20;;;5.40;;
67352;SDS011;54238;52.278;21.056;2023-06-24T06:17:45;6.80;;;5.20;;
67352;SDS011;54238;52.278;21.056;2023-06-24T06:20:17;7.40;;;4.70;;
67352;SDS011;54238;52.278;21.056;2023-06-24T06:22:47;9.60;;;6.10;;
67352;SDS011;54238;52.278;21.056;2023-06-24T06:25:18;7.40;;;5.10;;
67352;SDS011;54238;52.278;21.056;2023-06-24T06:27:45;5.30;;;4.80;;
67352;SDS011;54238;52.278;21.056;2023-06-24T06:30:13;9.20;;;4.60;;
67352;SDS011;54238;52.278;21.056;2023-06-24T06:32:41;6.10;;;4.70;;
67352;SDS011;54238;52.278;21.056;2023-06-24T06:35:09;7.90;;;5.10;;
67352;SDS011;54238;52.278;21.056;2023-06-24T06:37:36;7.70;;;4.80;;
67352;SDS011;54238;52.278;21.056;2023-06-24T06:40:08;7.10;;;4.40;;
67352;SDS011;54238;52.278;21.056;2023-06-24T06:42:38;6.30;;;4.50;;
67352;SDS011;54238;52.278;21.056;2023-06-24T06:45:08;11.00;;;5.30;;
67352;SDS011;54238;52.278;21.056;2023-06-24T06:47:40;7.90;;;4.70;;
67352;SDS011;54238;52.278;21.056;2023-06-24T06:50:07;10.80;;;4.40;;
67352;SDS011;54238;52.278;21.056;2023-06-24T06:52:39;6.00;;;4.30;;
67352;SDS011;54238;52.278;21.056;2023-06-24T06:55:09;8.40;;;4.70;;
67352;SDS011;54238;52.278;21.056;2023-06-24T06:57:43;6.40;;;4.80;;
67352;SDS011;54238;52.278;21.056;2023-06-24T07:00:11;9.10;;;5.00;;
67352;SDS011;54238;52.278;21.056;2023-06-24T07:02:39;5.40;;;4.70;;
67352;SDS011;54238;52.278;21.056;2023-06-24T07:05:06;14.50;;;5.30;;
67352;SDS011;54238;52.278;21.056;2023-06-24T07:07:41;7.10;;;4.50;;
67352;SDS011;54238;52.278;21.056;2023-06-24T07:10:14;7.80;;;4.90;;
67352;SDS011;54238;52.278;21.056;2023-06-24T07:12:45;9.90;;;4.90;;
67352;SDS011;54238;52.278;21.056;2023-06-24T07:15:12;6.80;;;4.90;;
67352;SDS011;54238;52.278;21.056;2023-06-24T07:17:46;7.70;;;5.10;;
67352;SDS011;54238;52.278;21.056;2023-06-24T07:20:16;8.10;;;5.60;;
67352;SDS011;54238;52.278;21.056;2023-06-24T07:22:48;10.20;;;5.40;;
67352;SDS011;54238;52.278;21.056;2023-06-24T07:25:15;10.20;;;5.20;;
67352;SDS011;54238;52.278;21.056;2023-06-24T07:27:48;8.40;;;4.40;;
67352;SDS011;54238;52.278;21.056;2023-06-24T07:30:18;5.80;;;4.10;;
67352;SDS011;54238;52.278;21.056;2023-06-24T07:32:47;5.90;;;4.40;;
67352;SDS011;54238;52.278;21.056;2023-06-24T07:35:14;10.20;;;5.20;;
67352;SDS011;54238;52.278;21.056;2023-06-24T07:37:42;8.90;;;5.10;;
67352;SDS011;54238;52.278;21.056;2023-06-24T07:40:14;5.90;;;4.90;;
67352;SDS011;54238;52.278;21.056;2023-06-24T07:42:44;5.50;;;3.80;;
67352;SDS011;54238;52.278;21.056;2023-06-24T07:45:13;7.60;;;5.40;;
67352;SDS011;54238;52.278;21.056;2023-06-24T07:47:41;11.40;;;9.20;;
67352;SDS011;54238;52.278;21.056;2023-06-24T07:50:08;5.80;;;4.10;;
67352;SDS011;54238;52.278;21.056;2023-06-24T07:52:38;4.80;;;3.70;;
67352;SDS011;54238;52.278;21.056;2023-06-24T07:55:05;6.20;;;4.00;;
67352;SDS011;54238;52.278;21.056;2023-06-24T07:57:33;8.20;;;3.80;;
67352;SDS011;54238;52.278;21.056;2023-06-24T08:00:00;4.80;;;4.00;;
67352;SDS011;54238;52.278;21.056;2023-06-24T08:02:27;6.50;;;3.50;;
67352;SDS011;54238;52.278;21.056;2023-06-24T08:04:57;7.40;;;3.90;;
67352;SDS011;54238;52.278;21.056;2023-06-24T08:07:24;3.50;;;3.10;;
67352;SDS011;54238;52.278;21.056;2023-06-24T08:09:56;5.60;;;4.00;;
67352;SDS011;54238;52.278;21.056;2023-06-24T08:12:24;4.60;;;3.70;;
67352;SDS011;54238;52.278;21.056;2023-06-24T08:14:54;4.80;;;3.60;;
67352;SDS011;54238;52.278;21.056;2023-06-24T08:17:21;5.40;;;3.80;;
67352;SDS011;54238;52.278;21.056;2023-06-24T08:19:50;4.80;;;3.80;;
67352;SDS011;54238;52.278;21.056;2023-06-24T08:22:19;8.20;;;3.80;;
67352;SDS011;54238;52.278;21.056;2023-06-24T08:24:49;5.40;;;3.50;;
67352;SDS011;54238;52.278;21.056;2023-06-24T08:27:16;5.90;;;3.80;;
67352;SDS011;54238;52.278;21.056;2023-06-24T08:29:46;6.40;;;3.70;;
67352;SDS011;54238;52.278;21.056;2023-06-24T08:32:13;5.50;;;4.20;;
67352;SDS011;54238;52.278;21.056;2023-06-24T08:34:43;4.60;;;3.10;;
67352;SDS011;54238;52.278;21.056;2023-06-24T08:37:16;3.90;;;2.90;;
67352;SDS011;54238;52.278;21.056;2023-06-24T08:39:43;6.60;;;3.70;;
67352;SDS011;54238;52.278;21.056;2023-06-24T08:42:12;5.40;;;3.70;;
67352;SDS011;54238;52.278;21.056;2023-06-24T08:44:42;5.10;;;3.30;;
67352;SDS011;54238;52.278;21.056;2023-06-24T08:47:09;4.80;;;3.60;;
67352;SDS011;54238;52.278;21.056;2023-06-24T08:49:47;8.50;;;3.70;;
67352;SDS011;54238;52.278;21.056;2023-06-24T08:52:16;5.20;;;3.60;;
67352;SDS011;54238;52.278;21.056;2023-06-24T08:54:46;5.40;;;4.00;;
67352;SDS011;54238;52.278;21.056;2023-06-24T08:57:19;6.00;;;3.90;;
67352;SDS011;54238;52.278;21.056;2023-06-24T08:59:48;6.20;;;3.80;;
67352;SDS011;54238;52.278;21.056;2023-06-24T09:04:51;4.30;;;3.90;;
67352;SDS011;54238;52.278;21.056;2023-06-24T09:07:27;4.20;;;3.70;;
67352;SDS011;54238;52.278;21.056;2023-06-24T09:09:57;5.40;;;3.90;;
67352;SDS011;54238;52.278;21.056;2023-06-24T09:12:25;9.50;;;3.80;;
67352;SDS011;54238;52.278;21.056;2023-06-24T09:14:55;7.00;;;4.20;;
67352;SDS011;54238;52.278;21.056;2023-06-24T09:17:25;5.50;;;3.90;;
67352;SDS011;54238;52.278;21.056;2023-06-24T09:19:52;5.80;;;4.10;;
67352;SDS011;54238;52.278;21.056;2023-06-24T09:22:19;4.30;;;3.70;;
67352;SDS011;54238;52.278;21.056;2023-06-24T09:24:48;4.90;;;3.70;;
67352;SDS011;54238;52.278;21.056;2023-06-24T09:27:17;5.60;;;4.00;;
67352;SDS011;54238;52.278;21.056;2023-06-24T09:29:48;6.10;;;3.90;;
67352;SDS011;54238;52.278;21.056;2023-06-24T09:32:15;5.90;;;3.70;;
67352;SDS011;54238;52.278;21.056;2023-06-24T09:34:50;8.30;;;4.20;;
67352;SDS011;54238;52.278;21.056;2023-06-24T09:37:24;4.80;;;3.80;;
67352;SDS011;54238;52.278;21.056;2023-06-24T09:39:54;5.50;;;3.90;;
67352;SDS011;54238;52.278;21.056;2023-06-24T09:42:24;6.40;;;3.80;;
67352;SDS011;54238;52.278;21.056;2023-06-24T09:44:56;6.20;;;3.80;;
67352;SDS011;54238;52.278;21.056;2023-06-24T09:47:24;6.30;;;3.80;;
67352;SDS011;54238;52.278;21.056;2023-06-24T09:49:54;6.90;;;3.80;;
67352;SDS011;54238;52.278;21.056;2023-06-24T09:52:21;6.90;;;4.10;;
67352;SDS011;54238;52.278;21.056;2023-06-24T09:54:56;4.90;;;3.90;;
67352;SDS011;54238;52.278;21.056;2023-06-24T09:57:33;5.10;;;3.80;;
67352;SDS011;54238;52.278;21.056;2023-06-24T10:00:06;6.40;;;4.40;;
67352;SDS011;54238;52.278;21.056;2023-06-24T10:02:37;4.30;;;3.90;;
67352;SDS011;54238;52.278;21.056;2023-06-24T10:05:05;5.90;;;4.30;;
67352;SDS011;54238;52.278;21.056;2023-06-24T10:07:34;6.40;;;4.20;;
67352;SDS011;54238;52.278;21.056;2023-06-24T10:10:03;5.90;;;3.70;;
67352;SDS011;54238;52.278;21.056;2023-06-24T10:12:36;5.10;;;4.10;;
67352;SDS011;54238;52.278;21.056;2023-06-24T10:15:08;5.30;;;3.70;;
67352;SDS011;54238;52.278;21.056;2023-06-24T10:17:41;7.60;;;3.90;;
67352;SDS011;54238;52.278;21.056;2023-06-24T10:20:12;6.20;;;4.10;;
67352;SDS011;54238;52.278;21.056;2023-06-24T10:22:45;7.80;;;4.30;;
67352;SDS011;54238;52.278;21.056;2023-06-24T10:25:17;6.00;;;4.70;;
67352;SDS011;54238;52.278;21.056;2023-06-24T10:27:53;7.90;;;4.00;;
67352;SDS011;54238;52.278;21.056;2023-06-24T10:30:27;5.50;;;3.90;;
67352;SDS011;54238;52.278;21.056;2023-06-24T10:32:55;6.70;;;4.10;;
67352;SDS011;54238;52.278;21.056;2023-06-24T10:35:27;6.80;;;3.90;;
67352;SDS011;54238;52.278;21.056;2023-06-24T10:38:02;5.00;;;3.70;;
67352;SDS011;54238;52.278;21.056;2023-06-24T10:40:39;7.20;;;4.00;;
67352;SDS011;54238;52.278;21.056;2023-06-24T10:45:55;5.00;;;4.20;;
67352;SDS011;54238;52.278;21.056;2023-06-24T10:48:27;6.30;;;3.90;;
67352;SDS011;54238;52.278;21.056;2023-06-24T10:51:03;5.90;;;4.20;;
67352;SDS011;54238;52.278;21.056;2023-06-24T10:53:31;6.70;;;4.60;;
67352;SDS011;54238;52.278;21.056;2023-06-24T10:55:58;6.10;;;4.00;;
67352;SDS011;54238;52.278;21.056;2023-06-24T10:58:31;5.90;;;4.50;;
67352;SDS011;54238;52.278;21.056;2023-06-24T11:01:08;5.60;;;4.10;;
67352;SDS011;54238;52.278;21.056;2023-06-24T11:03:39;7.70;;;3.80;;
67352;SDS011;54238;52.278;21.056;2023-06-24T11:06:10;6.80;;;4.00;;
67352;SDS011;54238;52.278;21.056;2023-06-24T11:08:43;6.20;;;4.40;;
67352;SDS011;54238;52.278;21.056;2023-06-24T11:11:18;7.30;;;4.20;;
67352;SDS011;54238;52.278;21.056;2023-06-24T11:13:48;7.60;;;4.30;;
67352;SDS011;54238;52.278;21.056;2023-06-24T11:16:20;9.50;;;4.10;;
67352;SDS011;54238;52.278;21.056;2023-06-24T11:18:48;7.00;;;3.90;;
67352;SDS011;54238;52.278;21.056;2023-06-24T11:26:04;8.30;;;4.80;;
67352;SDS011;54238;52.278;21.056;2023-06-24T11:28:32;9.40;;;4.40;;
67352;SDS011;54238;52.278;21.056;2023-06-24T11:31:07;6.10;;;4.40;;
67352;SDS011;54238;52.278;21.056;2023-06-24T11:33:39;7.60;;;4.50;;
67352;SDS011;54238;52.278;21.056;2023-06-24T11:36:10;5.90;;;4.10;;
67352;SDS011;54238;52.278;21.056;2023-06-24T11:38:39;8.00;;;4.30;;
67352;SDS011;54238;52.278;21.056;2023-06-24T11:41:09;7.50;;;4.30;;
67352;SDS011;54238;52.278;21.056;2023-06-24T11:43:45;7.40;;;3.70;;
67352;SDS011;54238;52.278;21.056;2023-06-24T11:49:05;7.10;;;4.50;;
67352;SDS011;54238;52.278;21.056;2023-06-24T11:51:36;6.50;;;3.60;;
67352;SDS011;54238;52.278;21.056;2023-06-24T11:54:05;6.10;;;4.40;;
67352;SDS011;54238;52.278;21.056;2023-06-24T11:56:39;11.80;;;5.20;;
67352;SDS011;54238;52.278;21.056;2023-06-24T12:02:04;7.00;;;3.70;;
67352;SDS011;54238;52.278;21.056;2023-06-24T12:04:33;8.10;;;4.20;;
67352;SDS011;54238;52.278;21.056;2023-06-24T12:07:06;6.00;;;4.50;;
67352;SDS011;54238;52.278;21.056;2023-06-24T12:09:33;6.70;;;4.20;;
67352;SDS011;54238;52.278;21.056;2023-06-24T12:12:06;8.20;;;4.00;;
67352;SDS011;54238;52.278;21.056;2023-06-24T12:14:36;5.70;;;4.10;;
67352;SDS011;54238;52.278;21.056;2023-06-24T12:17:03;6.50;;;4.30;;
67352;SDS011;54238;52.278;21.056;2023-06-24T12:19:30;5.90;;;4.00;;
67352;SDS011;54238;52.278;21.056;2023-06-24T12:21:59;8.40;;;4.30;;
67352;SDS011;54238;52.278;21.056;2023-06-24T12:24:31;9.50;;;4.60;;
67352;SDS011;54238;52.278;21.056;2023-06-24T12:26:59;6.70;;;5.00;;
67352;SDS011;54238;52.278;21.056;2023-06-24T12:29:28;9.40;;;4.90;;
67352;SDS011;54238;52.278;21.056;2023-06-24T12:32:03;6.80;;;4.40;;
67352;SDS011;54238;52.278;21.056;2023-06-24T12:34:37;6.00;;;4.40;;
67352;SDS011;54238;52.278;21.056;2023-06-24T12:37:04;9.00;;;4.40;;
67352;SDS011;54238;52.278;21.056;2023-06-24T12:39:31;5.50;;;3.70;;
67352;SDS011;54238;52.278;21.056;2023-06-24T12:41:58;7.10;;;4.20;;
67352;SDS011;54238;52.278;21.056;2023-06-24T12:44:25;6.30;;;4.50;;
67352;SDS011;54238;52.278;21.056;2023-06-24T12:46:58;7.70;;;4.10;;
67352;SDS011;54238;52.278;21.056;2023-06-24T12:49:29;5.80;;;3.60;;
67352;SDS011;54238;52.278;21.056;2023-06-24T12:51:59;5.90;;;4.20;;
67352;SDS011;54238;52.278;21.056;2023-06-24T12:54:31;5.30;;;4.30;;
67352;SDS011;54238;52.278;21.056;2023-06-24T12:57:00;6.60;;;4.80;;
67352;SDS011;54238;52.278;21.056;2023-06-24T12:59:30;4.80;;;3.80;;
67352;SDS011;54238;52.278;21.056;2023-06-24T13:01:57;4.70;;;3.80;;
67352;SDS011;54238;52.278;21.056;2023-06-24T13:04:24;7.10;;;4.70;;
67352;SDS011;54238;52.278;21.056;2023-06-24T13:06:53;6.30;;;4.00;;
67352;SDS011;54238;52.278;21.056;2023-06-24T13:09:23;7.10;;;4.20;;
67352;SDS011;54238;52.278;21.056;2023-06-24T13:11:50;7.60;;;4.60;;
67352;SDS011;54238;52.278;21.056;2023-06-24T13:14:23;7.10;;;4.20;;
67352;SDS011;54238;52.278;21.056;2023-06-24T13:16:55;9.30;;;5.30;;
67352;SDS011;54238;52.278;21.056;2023-06-24T13:19:27;5.90;;;4.30;;
67352;SDS011;54238;52.278;21.056;2023-06-24T13:21:54;8.90;;;5.10;;
67352;SDS011;54238;52.278;21.056;2023-06-24T13:24:21;8.80;;;5.00;;
67352;SDS011;54238;52.278;21.056;2023-06-24T13:26:52;8.30;;;4.90;;
67352;SDS011;54238;52.278;21.056;2023-06-24T13:29:19;6.10;;;4.40;;
67352;SDS011;54238;52.278;21.056;2023-06-24T13:31:47;7.40;;;4.90;;
67352;SDS011;54238;52.278;21.056;2023-06-24T13:34:19;6.90;;;4.60;;
67352;SDS011;54238;52.278;21.056;2023-06-24T13:36:47;5.80;;;4.60;;
67352;SDS011;54238;52.278;21.056;2023-06-24T13:39:16;5.00;;;4.20;;
67352;SDS011;54238;52.278;21.056;2023-06-24T13:41:51;8.10;;;4.30;;
67352;SDS011;54238;52.278;21.056;2023-06-24T13:44:21;5.30;;;4.10;;
67352;SDS011;54238;52.278;21.056;2023-06-24T13:46:48;6.30;;;4.20;;
67352;SDS011;54238;52.278;21.056;2023-06-24T13:49:20;4.30;;;3.50;;
67352;SDS011;54238;52.278;21.056;2023-06-24T13:51:51;6.00;;;3.50;;
67352;SDS011;54238;52.278;21.056;2023-06-24T13:54:18;5.60;;;3.50;;
67352;SDS011;54238;52.278;21.056;2023-06-24T13:56:48;7.50;;;3.80;;
67352;SDS011;54238;52.278;21.056;2023-06-24T13:59:17;5.10;;;3.70;;
67352;SDS011;54238;52.278;21.056;2023-06-24T14:01:45;5.00;;;4.30;;
67352;SDS011;54238;52.278;21.056;2023-06-24T14:04:15;6.40;;;4.10;;
67352;SDS011;54238;52.278;21.056;2023-06-24T14:06:44;4.70;;;3.80;;
67352;SDS011;54238;52.278;21.056;2023-06-24T14:09:13;6.40;;;3.90;;
67352;SDS011;54238;52.278;21.056;2023-06-24T14:11:40;6.60;;;4.30;;
67352;SDS011;54238;52.278;21.056;2023-06-24T14:14:10;6.90;;;4.90;;
67352;SDS011;54238;52.278;21.056;2023-06-24T14:16:39;7.70;;;4.70;;
67352;SDS011;54238;52.278;21.056;2023-06-24T14:19:09;7.30;;;4.40;;
67352;SDS011;54238;52.278;21.056;2023-06-24T14:21:43;5.70;;;4.10;;
67352;SDS011;54238;52.278;21.056;2023-06-24T14:24:11;7.20;;;4.40;;
67352;SDS011;54238;52.278;21.056;2023-06-24T14:26:38;6.10;;;3.80;;
67352;SDS011;54238;52.278;21.056;2023-06-24T14:29:10;7.00;;;4.00;;
67352;SDS011;54238;52.278;21.056;2023-06-24T14:31:38;5.50;;;3.60;;
67352;SDS011;54238;52.278;21.056;2023-06-24T14:34:05;5.50;;;4.10;;
67352;SDS011;54238;52.278;21.056;2023-06-24T14:36:35;6.80;;;4.20;;
67352;SDS011;54238;52.278;21.056;2023-06-24T14:39:07;5.90;;;4.30;;
67352;SDS011;54238;52.278;21.056;2023-06-24T14:41:36;7.70;;;4.30;;
67352;SDS011;54238;52.278;21.056;2023-06-24T14:44:04;6.60;;;4.00;;
67352;SDS011;54238;52.278;21.056;2023-06-24T14:46:31;7.40;;;4.40;;
67352;SDS011;54238;52.278;21.056;2023-06-24T14:49:00;5.60;;;4.30;;
67352;SDS011;54238;52.278;21.056;2023-06-24T14:51:28;7.30;;;4.30;;
67352;SDS011;54238;52.278;21.056;2023-06-24T14:53:55;3.70;;;3.40;;
67352;SDS011;54238;52.278;21.056;2023-06-24T14:56:24;6.50;;;4.10;;
67352;SDS011;54238;52.278;21.056;2023-06-24T14:58:56;8.10;;;4.70;;
67352;SDS011;54238;52.278;21.056;2023-06-24T15:01:24;7.70;;;4.00;;
67352;SDS011;54238;52.278;21.056;2023-06-24T15:03:56;6.00;;;4.90;;
67352;SDS011;54238;52.278;21.056;2023-06-24T15:06:25;7.80;;;4.40;;
67352;SDS011;54238;52.278;21.056;2023-06-24T15:08:55;12.30;;;5.00;;
67352;SDS011;54238;52.278;21.056;2023-06-24T15:11:29;7.20;;;5.20;;
67352;SDS011;54238;52.278;21.056;2023-06-24T15:14:01;8.50;;;4.40;;
67352;SDS011;54238;52.278;21.056;2023-06-24T15:16:32;7.10;;;4.80;;
67352;SDS011;54238;52.278;21.056;2023-06-24T15:19:03;5.50;;;4.80;;
67352;SDS011;54238;52.278;21.056;2023-06-24T15:21:35;6.70;;;5.60;;
67352;SDS011;54238;52.278;21.056;2023-06-24T15:24:03;6.20;;;4.80;;
67352;SDS011;54238;52.278;21.056;2023-06-24T15:26:30;6.00;;;5.00;;
67352;SDS011;54238;52.278;21.056;2023-06-24T15:29:02;10.00;;;5.00;;
67352;SDS011;54238;52.278;21.056;2023-06-24T15:31:34;8.00;;;5.00;;
67352;SDS011;54238;52.278;21.056;2023-06-24T15:34:07;8.40;;;5.70;;
67352;SDS011;54238;52.278;21.056;2023-06-24T15:36:42;10.40;;;4.90;;